createdAt,value
2019-03-09T00:01:55.411Z,1.50
2019-03-09T00:04:25.046Z,1.53
2019-03-09T00:06:54.984Z,1.43
2019-03-09T00:09:43.518Z,1.60
2019-03-09T00:15:06.992Z,2.17
2019-03-09T00:17:37.402Z,1.67
2019-03-09T00:20:07.039Z,1.20
2019-03-09T00:22:36.459Z,1.10
2019-03-09T00:25:25.130Z,1.23
2019-03-09T00:31:10.493Z,1.10
2019-03-09T00:33:40.114Z,1.90
2019-03-09T00:36:09.728Z,1.10
2019-03-09T00:38:42.254Z,1.30
2019-03-09T00:41:11.716Z,1.50
2019-03-09T00:43:41.178Z,1.53
2019-03-09T00:46:29.747Z,1.57
2019-03-09T00:48:59.172Z,1.20
2019-03-09T00:51:28.553Z,1.23
2019-03-09T00:53:59.717Z,1.20
2019-03-09T00:56:29.193Z,2.17
2019-03-09T00:59:01.285Z,1.77
2019-03-09T01:01:30.773Z,1.10
2019-03-09T01:04:00.306Z,1.60
2019-03-09T01:06:30.032Z,1.30
2019-03-09T01:08:59.548Z,1.63
2019-03-09T01:11:48.658Z,1.53
2019-03-09T01:14:37.280Z,1.87
2019-03-09T01:17:18.357Z,1.70
2019-03-09T01:19:48.276Z,1.77
2019-03-09T01:25:26.154Z,2.10
2019-03-09T01:27:55.988Z,1.80
2019-03-09T01:30:25.877Z,1.30
2019-03-09T01:32:57.704Z,1.97
2019-03-09T01:35:46.370Z,1.57
2019-03-09T01:38:27.150Z,1.70
2019-03-09T01:40:59.740Z,1.37
2019-03-09T01:46:04.341Z,1.73
2019-03-09T01:48:45.234Z,1.40
2019-03-09T01:54:46.146Z,1.53
2019-03-09T02:00:02.127Z,1.80
2019-03-09T02:02:53.068Z,1.70
2019-03-09T02:05:34.061Z,1.57
2019-03-09T02:08:03.530Z,1.70
2019-03-09T02:10:33.071Z,2.00
2019-03-09T02:13:25.110Z,2.80
2019-03-09T02:15:54.796Z,2.03
2019-03-09T02:18:24.952Z,1.80
2019-03-09T02:21:13.415Z,1.53
2019-03-09T02:23:42.903Z,2.07
2019-03-09T02:26:15.117Z,1.93
2019-03-09T02:28:44.589Z,1.87
2019-03-09T02:31:14.021Z,2.10
2019-03-09T02:33:43.448Z,1.80
2019-03-09T02:36:32.611Z,1.30
2019-03-09T02:42:28.431Z,1.77
2019-03-09T02:44:57.941Z,1.80
2019-03-09T02:47:27.492Z,1.70
2019-03-09T02:49:58.965Z,2.80
2019-03-09T02:52:28.398Z,1.60
2019-03-09T02:55:16.827Z,1.80
2019-03-09T02:57:49.865Z,2.20
2019-03-09T03:00:40.087Z,2.17
2019-03-09T03:03:09.430Z,1.87
2019-03-09T03:05:39.241Z,1.50
2019-03-09T03:10:43.678Z,2.13
2019-03-09T03:13:13.168Z,1.87
2019-03-09T03:15:42.615Z,2.10
2019-03-09T03:21:00.397Z,1.97
2019-03-09T03:23:48.864Z,1.60
2019-03-09T03:26:18.446Z,1.80
2019-03-09T03:28:47.839Z,2.00
2019-03-09T03:31:17.270Z,1.80
2019-03-09T03:33:46.815Z,1.70
2019-03-09T03:36:16.218Z,2.00
2019-03-09T03:38:45.613Z,2.67
2019-03-09T03:41:15.381Z,2.60
2019-03-09T03:43:44.911Z,2.10
2019-03-09T03:46:22.510Z,2.60
2019-03-09T03:48:52.119Z,2.13
2019-03-09T03:51:21.828Z,1.93
2019-03-09T03:56:40.417Z,1.97
2019-03-09T03:59:09.934Z,3.30
2019-03-09T04:01:39.373Z,2.50
2019-03-09T04:04:27.969Z,1.77
2019-03-09T04:07:09.678Z,1.80
2019-03-09T04:09:39.381Z,2.10
2019-03-09T04:12:08.885Z,1.60
2019-03-09T04:14:38.371Z,1.97
2019-03-09T04:17:28.018Z,1.83
2019-03-09T04:19:57.500Z,2.33
2019-03-09T04:22:26.977Z,1.70
2019-03-09T04:24:56.733Z,1.73
2019-03-09T04:27:26.244Z,2.00
2019-03-09T04:32:45.231Z,2.60
2019-03-09T04:35:14.771Z,2.73
2019-03-09T04:37:44.154Z,2.63
2019-03-09T04:40:15.479Z,1.90
2019-03-09T04:42:44.873Z,1.60
2019-03-09T04:45:14.699Z,2.00
2019-03-09T04:47:44.121Z,2.17
2019-03-09T04:50:13.562Z,1.90
2019-03-09T04:52:42.945Z,1.80
2019-03-09T04:55:12.779Z,2.00
2019-03-09T04:57:42.156Z,2.77
2019-03-09T05:00:32.110Z,2.00
2019-03-09T05:03:01.504Z,1.80
2019-03-09T05:05:31.007Z,3.10
2019-03-09T05:08:12.585Z,3.20
2019-03-09T05:14:08.012Z,1.73
2019-03-09T05:16:37.843Z,1.70
2019-03-09T05:19:07.290Z,1.77
2019-03-09T05:21:37.553Z,2.00
2019-03-09T05:24:07.009Z,2.13
2019-03-09T05:26:36.531Z,2.33
2019-03-09T05:29:25.137Z,1.83
2019-03-09T05:34:54.195Z,1.53
2019-03-09T05:37:44.223Z,2.27
2019-03-09T05:40:13.724Z,2.53
2019-03-09T05:42:43.297Z,2.00
2019-03-09T05:45:12.692Z,2.83
2019-03-09T05:47:42.150Z,2.90
2019-03-09T05:50:11.691Z,1.93
2019-03-09T05:52:41.721Z,2.20
2019-03-09T05:55:30.487Z,2.10
2019-03-09T05:58:00.100Z,1.97
2019-03-09T06:00:29.594Z,1.67
2019-03-09T06:02:59.361Z,2.00
2019-03-09T06:06:06.747Z,1.70
2019-03-09T06:08:36.213Z,1.93
2019-03-09T06:11:05.601Z,2.30
2019-03-09T06:13:35.147Z,2.67
2019-03-09T06:16:04.551Z,1.70
2019-03-09T06:19:20.752Z,3.30
2019-03-09T06:21:50.424Z,2.30
2019-03-09T06:24:19.806Z,2.70
2019-03-09T06:26:49.260Z,1.60
2019-03-09T06:29:37.563Z,2.23
2019-03-09T06:32:18.904Z,1.47
2019-03-09T06:37:26.762Z,2.13
2019-03-09T06:39:57.335Z,1.97
2019-03-09T06:43:04.803Z,2.33
2019-03-09T06:45:34.237Z,2.10
2019-03-09T06:48:03.665Z,2.00
2019-03-09T06:50:33.113Z,2.70
2019-03-09T06:53:21.590Z,2.17
2019-03-09T06:55:51.066Z,3.17
2019-03-09T06:58:20.441Z,2.27
2019-03-09T07:00:49.855Z,2.10
2019-03-09T07:03:19.230Z,2.23
2019-03-09T07:06:07.849Z,2.23
2019-03-09T07:08:39.378Z,2.27
2019-03-09T07:13:57.035Z,2.77
2019-03-09T07:16:45.431Z,1.80
2019-03-09T07:19:26.198Z,2.30
2019-03-09T07:24:36.834Z,1.77
2019-03-09T07:27:06.237Z,1.90
2019-03-09T07:29:35.642Z,2.50
2019-03-09T07:32:05.127Z,2.13
2019-03-09T07:34:34.554Z,3.10
2019-03-09T07:37:03.940Z,2.40
2019-03-09T07:39:33.393Z,2.70
2019-03-09T07:42:02.806Z,1.97
2019-03-09T07:44:34.211Z,2.43
2019-03-09T07:47:03.373Z,2.13
2019-03-09T07:49:32.822Z,2.70
2019-03-09T07:52:02.244Z,2.17
2019-03-09T07:54:31.755Z,2.47
2019-03-09T07:59:49.828Z,2.43
2019-03-09T08:02:19.214Z,2.27
2019-03-09T08:04:48.720Z,2.57
2019-03-09T08:07:18.386Z,2.23
2019-03-09T08:09:47.758Z,3.20
2019-03-09T08:12:17.147Z,2.10
2019-03-09T08:14:46.535Z,2.13
2019-03-09T08:17:15.939Z,1.90
2019-03-09T08:19:45.367Z,2.53
2019-03-09T08:22:26.967Z,2.20
2019-03-09T08:27:50.720Z,3.03
2019-03-09T08:30:24.176Z,2.10
2019-03-09T08:32:53.832Z,2.20
2019-03-09T08:35:23.366Z,1.90
2019-03-09T08:38:12.113Z,2.17
2019-03-09T08:40:42.795Z,2.90
2019-03-09T08:45:53.699Z,2.10
2019-03-09T08:48:23.247Z,2.03
2019-03-09T08:56:40.050Z,2.53
2019-03-09T08:59:09.753Z,2.53
2019-03-09T09:01:58.015Z,2.00
2019-03-09T09:04:27.610Z,2.70
2019-03-09T09:06:57.179Z,2.07
2019-03-09T09:09:26.798Z,2.60
2019-03-09T09:12:02.606Z,2.47
2019-03-09T09:14:32.042Z,2.87
2019-03-09T09:17:01.447Z,2.53
2019-03-09T09:19:30.897Z,2.57
2019-03-09T09:22:00.269Z,2.30
2019-03-09T09:24:41.283Z,1.97
2019-03-09T09:30:18.470Z,3.07
2019-03-09T09:32:47.969Z,2.10
2019-03-09T09:35:57.685Z,2.47
2019-03-09T09:38:27.275Z,2.10
2019-03-09T09:40:56.926Z,2.20
2019-03-09T09:43:26.380Z,1.60
2019-03-09T09:48:49.694Z,1.83
2019-03-09T09:51:19.065Z,1.93
2019-03-09T09:53:48.431Z,2.17
2019-03-09T09:56:17.970Z,2.30
2019-03-09T09:58:47.426Z,1.80
2019-03-09T10:01:16.793Z,2.30
2019-03-09T10:03:46.211Z,1.67
2019-03-09T10:06:18.062Z,1.80
2019-03-09T10:08:47.500Z,2.20
2019-03-09T10:11:16.978Z,1.97
2019-03-09T10:14:01.396Z,1.97
2019-03-09T10:19:05.770Z,2.10
2019-03-09T10:21:35.228Z,1.90
2019-03-09T10:24:04.627Z,2.10
2019-03-09T10:26:45.557Z,2.10
2019-03-09T10:32:09.000Z,1.87
2019-03-09T10:34:38.415Z,2.53
2019-03-09T10:37:08.034Z,2.30
2019-03-09T10:39:39.281Z,2.37
2019-03-09T10:45:03.776Z,3.03
2019-03-09T10:53:20.389Z,2.53
2019-03-09T10:56:01.836Z,2.47
2019-03-09T10:58:31.236Z,2.10
2019-03-09T11:01:00.673Z,2.43
2019-03-09T11:03:30.250Z,2.33
2019-03-09T11:05:59.675Z,2.07
2019-03-09T11:08:34.167Z,2.93
2019-03-09T11:11:42.918Z,2.20
2019-03-09T11:14:12.395Z,2.43
2019-03-09T11:19:30.339Z,2.60
2019-03-09T11:21:59.746Z,2.30
2019-03-09T11:24:29.382Z,2.37
2019-03-09T11:29:33.946Z,2.50
2019-03-09T11:32:03.454Z,2.00
2019-03-09T11:34:32.938Z,2.13
2019-03-09T11:37:02.302Z,1.93
2019-03-09T11:39:31.751Z,2.57
2019-03-09T11:42:01.150Z,2.50
2019-03-09T11:44:30.611Z,2.30
2019-03-09T11:47:00.444Z,3.07
2019-03-09T11:49:29.822Z,2.70
2019-03-09T11:51:59.321Z,2.60
2019-03-09T11:54:28.813Z,2.27
2019-03-09T11:57:00.165Z,3.07
2019-03-09T11:59:29.556Z,2.50
2019-03-09T12:02:11.144Z,3.37
2019-03-09T12:04:46.797Z,2.80
2019-03-09T12:07:31.024Z,2.23
2019-03-09T12:10:00.455Z,2.70
2019-03-09T12:12:29.818Z,2.60
2019-03-09T12:14:59.523Z,2.83
2019-03-09T12:26:01.702Z,3.27
2019-03-09T12:28:31.096Z,2.77
2019-03-09T12:31:00.464Z,2.83
2019-03-09T12:36:04.525Z,2.50
2019-03-09T12:38:32.945Z,2.60
2019-03-09T12:41:16.347Z,2.33
2019-03-09T12:43:33.763Z,3.00
2019-03-09T12:46:03.190Z,2.50
2019-03-09T12:48:32.738Z,3.30
2019-03-09T12:51:02.265Z,2.30
2019-03-09T12:53:52.797Z,2.90
2019-03-09T12:56:22.279Z,2.70
2019-03-09T12:59:04.612Z,2.40
2019-03-09T13:01:34.558Z,2.70
2019-03-09T13:07:12.944Z,2.90
2019-03-09T13:09:44.824Z,3.03
2019-03-09T13:12:14.226Z,3.43
2019-03-09T13:14:43.788Z,3.13
2019-03-09T13:17:15.692Z,3.23
2019-03-09T13:19:45.559Z,3.10
2019-03-09T13:22:15.057Z,3.00
2019-03-09T13:24:46.146Z,2.80
2019-03-09T13:27:15.551Z,3.00
2019-03-09T13:32:19.817Z,2.63
2019-03-09T13:34:49.468Z,2.70
2019-03-09T13:37:18.889Z,2.87
2019-03-09T13:39:48.275Z,3.13
2019-03-09T13:42:17.816Z,3.47
2019-03-09T13:44:47.227Z,2.87
2019-03-09T13:47:16.648Z,2.97
2019-03-09T13:50:19.605Z,2.83
2019-03-09T13:55:30.965Z,2.77
2019-03-09T13:58:00.393Z,3.13
2019-03-09T14:00:40.409Z,2.47
2019-03-09T14:03:05.989Z,3.33
2019-03-09T14:06:08.256Z,3.20
2019-03-09T14:08:25.677Z,3.13
2019-03-09T14:13:48.940Z,3.20
2019-03-09T14:16:18.337Z,3.00
2019-03-09T14:18:47.730Z,2.90
2019-03-09T14:21:17.230Z,2.50
2019-03-09T14:23:46.780Z,2.63
2019-03-09T14:26:16.175Z,2.67
2019-03-09T14:28:45.707Z,2.97
2019-03-09T14:31:15.091Z,2.47
2019-03-09T14:34:05.592Z,2.87
2019-03-09T14:36:42.150Z,3.00
2019-03-09T14:39:11.577Z,2.87
2019-03-09T14:41:41.102Z,2.40
2019-03-09T14:44:10.546Z,2.20
2019-03-09T14:46:40.366Z,2.70
2019-03-09T14:49:09.871Z,2.67
2019-03-09T14:51:39.376Z,2.27
2019-03-09T14:54:08.968Z,2.57
2019-03-09T14:56:38.374Z,2.50
2019-03-09T14:59:07.887Z,2.70
2019-03-09T15:01:37.552Z,2.60
2019-03-09T15:04:07.055Z,2.40
2019-03-09T15:06:37.006Z,2.83
2019-03-09T15:09:17.997Z,2.90
2019-03-09T15:14:28.717Z,2.60
2019-03-09T15:16:58.291Z,2.80
2019-03-09T15:19:27.836Z,2.83
2019-03-09T15:24:50.888Z,2.77
2019-03-09T15:32:36.325Z,3.10
2019-03-09T15:35:06.526Z,3.30
2019-03-09T15:37:36.008Z,2.90
2019-03-09T15:40:44.848Z,2.50
2019-03-09T15:43:14.260Z,3.00
2019-03-09T15:46:02.951Z,2.73
2019-03-09T15:48:35.481Z,2.90
2019-03-09T15:51:04.963Z,2.47
2019-03-09T15:53:34.437Z,2.73
2019-03-09T15:56:24.472Z,2.70
2019-03-09T15:58:56.337Z,3.10
2019-03-09T16:01:26.035Z,2.80
2019-03-09T16:03:55.412Z,2.57
2019-03-09T16:06:27.701Z,2.43
2019-03-09T16:08:57.242Z,2.50
2019-03-09T16:11:27.039Z,2.33
2019-03-09T16:13:57.193Z,2.83
2019-03-09T16:16:46.985Z,2.47
2019-03-09T16:19:17.029Z,2.43
2019-03-09T16:21:46.446Z,2.67
2019-03-09T16:24:15.827Z,2.63
2019-03-09T16:27:04.364Z,2.67
2019-03-09T16:29:33.767Z,2.80
2019-03-09T16:32:03.182Z,3.27
2019-03-09T16:34:33.680Z,2.50
2019-03-09T16:37:03.022Z,2.70
2019-03-09T16:39:32.452Z,3.20
2019-03-09T16:42:02.335Z,2.63
2019-03-09T16:44:31.917Z,3.10
2019-03-09T16:47:01.417Z,2.53
2019-03-09T16:49:49.759Z,2.43
2019-03-09T16:52:19.372Z,2.70
2019-03-09T16:54:48.736Z,2.30
2019-03-09T17:00:32.292Z,2.70
2019-03-09T17:03:13.303Z,2.40
2019-03-09T17:05:44.902Z,2.30
2019-03-09T17:08:16.836Z,2.23
2019-03-09T17:10:46.451Z,1.93
2019-03-09T17:13:15.853Z,1.90
2019-03-09T17:15:45.403Z,2.23
2019-03-09T17:18:17.031Z,1.60
2019-03-09T17:20:46.416Z,1.90
2019-03-09T17:23:15.857Z,1.50
2019-03-09T17:25:45.361Z,1.33
2019-03-09T17:28:14.832Z,1.00
2019-03-09T17:30:44.469Z,1.70
2019-03-09T17:33:13.936Z,1.10
2019-03-09T17:35:43.455Z,1.20
2019-03-09T17:38:13.115Z,1.10
2019-03-09T17:40:43.686Z,1.10
2019-03-09T17:48:46.003Z,1.07
2019-03-09T17:51:15.376Z,0.80
2019-03-09T17:54:05.761Z,1.53
2019-03-09T17:56:35.240Z,1.03
2019-03-09T17:59:04.668Z,1.10
2019-03-09T18:01:34.661Z,1.10
2019-03-09T18:06:47.552Z,0.97
2019-03-09T18:12:13.368Z,0.80
2019-03-09T18:14:43.278Z,2.00
2019-03-09T18:17:12.704Z,0.90
2019-03-09T18:20:01.010Z,1.00
2019-03-09T18:22:30.481Z,1.03
2019-03-09T18:25:00.007Z,1.10
2019-03-09T18:27:29.575Z,1.30
2019-03-09T18:29:59.213Z,1.00
2019-03-09T18:32:28.796Z,1.00
2019-03-09T18:34:58.388Z,1.30
2019-03-09T18:37:28.061Z,1.07
2019-03-09T18:39:57.607Z,1.17
2019-03-09T18:42:27.295Z,1.10
2019-03-09T18:44:59.186Z,1.40
2019-03-09T18:47:28.952Z,1.33
2019-03-09T18:49:58.480Z,1.60
2019-03-09T18:52:28.048Z,1.30
2019-03-09T18:54:57.587Z,1.67
2019-03-09T18:57:27.264Z,1.47
2019-03-09T18:59:56.913Z,1.40
2019-03-09T19:02:26.471Z,1.50
2019-03-09T19:05:07.542Z,1.70
2019-03-09T19:07:52.925Z,1.40
2019-03-09T19:10:12.195Z,1.40
2019-03-09T19:15:31.065Z,1.63
2019-03-09T19:21:00.626Z,1.67
2019-03-09T19:23:30.199Z,1.90
2019-03-09T19:25:59.618Z,1.60
2019-03-09T19:28:35.268Z,2.07
2019-03-09T19:31:23.571Z,2.10
2019-03-09T19:33:53.365Z,2.70
2019-03-09T19:36:41.960Z,2.17
2019-03-09T19:44:39.516Z,2.73
2019-03-09T19:47:09.246Z,2.80
2019-03-09T19:49:59.846Z,3.37
2019-03-09T19:55:25.438Z,3.00
2019-03-09T19:57:55.065Z,2.50
2019-03-09T20:00:24.418Z,2.63
2019-03-09T20:02:56.275Z,2.57
2019-03-09T20:05:28.023Z,2.23
2019-03-09T20:07:57.619Z,2.60
2019-03-09T20:10:27.225Z,2.43
2019-03-09T20:12:56.738Z,2.60
2019-03-09T20:15:26.440Z,2.80
2019-03-09T20:17:56.046Z,2.93
2019-03-09T20:20:25.651Z,2.67
2019-03-09T20:22:55.075Z,2.77
2019-03-09T20:25:24.492Z,3.23
2019-03-09T20:27:55.673Z,3.17
2019-03-09T20:30:25.249Z,2.97
2019-03-09T20:32:54.769Z,3.70
2019-03-09T20:35:24.260Z,3.93
2019-03-09T20:38:13.894Z,3.87
2019-03-09T20:40:54.966Z,3.90
2019-03-09T20:43:24.736Z,3.60
2019-03-09T20:45:57.639Z,3.83
2019-03-09T20:48:27.174Z,3.90
2019-03-09T20:51:05.829Z,4.00
2019-03-09T20:53:35.234Z,3.90
2019-03-09T20:56:23.806Z,3.70
2019-03-09T20:58:53.414Z,2.90
2019-03-09T21:01:24.839Z,2.70
2019-03-09T21:03:54.825Z,2.70
2019-03-09T21:06:43.972Z,2.17
2019-03-09T21:09:25.228Z,2.07
2019-03-09T21:11:55.903Z,1.80
2019-03-09T21:14:25.358Z,2.10
2019-03-09T21:17:00.063Z,1.90
2019-03-09T21:19:29.473Z,1.43
2019-03-09T21:22:03.981Z,2.40
2019-03-09T21:24:33.413Z,1.40
2019-03-09T21:27:23.436Z,1.97
2019-03-09T21:29:54.071Z,1.67
2019-03-09T21:37:46.508Z,1.30
2019-03-09T21:40:16.065Z,1.40
2019-03-09T21:42:45.462Z,1.20
2019-03-09T21:45:14.925Z,1.00
2019-03-09T21:47:44.322Z,1.00
2019-03-09T21:50:14.311Z,1.20
2019-03-09T21:52:52.770Z,0.90
2019-03-09T21:55:40.605Z,1.00
2019-03-09T21:58:10.290Z,1.30
2019-03-09T22:00:39.697Z,1.33
2019-03-09T22:03:09.282Z,1.23
2019-03-09T22:05:38.784Z,0.80
2019-03-09T22:10:57.925Z,1.20
2019-03-09T22:13:27.375Z,1.00
2019-03-09T22:15:58.980Z,1.20
2019-03-09T22:21:06.292Z,1.20
2019-03-09T22:26:16.586Z,1.10
2019-03-09T22:28:57.972Z,1.10
2019-03-09T22:31:27.586Z,1.00
2019-03-09T22:33:57.123Z,1.30
2019-03-09T22:36:26.723Z,0.90
2019-03-09T22:38:56.404Z,0.97
2019-03-09T22:41:26.384Z,0.90
2019-03-09T22:43:55.832Z,0.90
2019-03-09T22:46:25.393Z,1.10
2019-03-09T22:49:13.659Z,0.90
2019-03-09T22:54:24.629Z,1.10
2019-03-09T22:56:54.167Z,1.53
2019-03-09T22:59:23.654Z,1.10
2019-03-09T23:01:53.295Z,1.33
2019-03-09T23:04:22.979Z,1.20
2019-03-09T23:07:11.503Z,1.20
2019-03-09T23:09:41.025Z,1.43
2019-03-09T23:12:10.439Z,1.30
2019-03-09T23:14:40.356Z,1.10
2019-03-09T23:17:09.853Z,1.00
2019-03-09T23:19:39.418Z,1.20
2019-03-09T23:22:08.987Z,1.23
2019-03-09T23:24:38.391Z,1.10
2019-03-09T23:27:35.819Z,1.10
2019-03-09T23:30:16.947Z,1.20
2019-03-09T23:32:46.395Z,1.20
2019-03-09T23:35:36.285Z,1.00
2019-03-09T23:38:05.694Z,0.90
2019-03-09T23:40:35.096Z,1.10
2019-03-09T23:43:04.601Z,1.00
2019-03-09T23:45:36.911Z,1.10
2019-03-09T23:48:06.295Z,0.87
2019-03-09T23:50:35.762Z,1.10
2019-03-09T23:53:05.212Z,1.00
2019-03-09T23:55:34.836Z,1.20
2019-03-09T23:58:04.210Z,1.00
